sensor_id;sensor_type;location;lat;lon;timestamp;pressure;altitude;pressure_sealevel;temperature;humidity
60820;BME280;46641;48.904;9.126;2023-09-07T00:03:05;98894.56;;;25.51;49.35
60820;BME280;46641;48.904;9.126;2023-09-07T00:07:55;98884.53;;;25.46;49.33
60820;BME280;46641;48.904;9.126;2023-09-07T00:12:46;98892.00;;;25.44;49.38
60820;BME280;46641;48.904;9.126;2023-09-07T00:17:36;98895.59;;;25.38;49.48
60820;BME280;46641;48.904;9.126;2023-09-07T00:22:26;98897.38;;;25.32;49.59
60820;BME280;46641;48.904;9.126;2023-09-07T00:27:17;98899.13;;;25.27;49.36
60820;BME280;46641;48.904;9.126;2023-09-07T00:32:07;98887.47;;;25.21;49.49
60820;BME280;46641;48.904;9.126;2023-09-07T00:36:57;98892.47;;;25.17;49.83
60820;BME280;46641;48.904;9.126;2023-09-07T00:41:48;98890.25;;;25.14;49.69
60820;BME280;46641;48.904;9.126;2023-09-07T00:46:39;98889.06;;;25.10;49.62
60820;BME280;46641;48.904;9.126;2023-09-07T00:51:29;98881.16;;;25.04;49.89
60820;BME280;46641;48.904;9.126;2023-09-07T00:56:20;98888.03;;;25.00;49.97
60820;BME280;46641;48.904;9.126;2023-09-07T01:01:10;98887.44;;;24.98;49.93
60820;BME280;46641;48.904;9.126;2023-09-07T01:10:57;98888.59;;;24.90;50.22
60820;BME280;46641;48.904;9.126;2023-09-07T01:15:48;98883.09;;;24.85;50.13
60820;BME280;46641;48.904;9.126;2023-09-07T01:20:40;98887.31;;;24.81;49.97
60820;BME280;46641;48.904;9.126;2023-09-07T01:25:31;98884.50;;;24.76;50.01
60820;BME280;46641;48.904;9.126;2023-09-07T01:30:22;98879.84;;;24.71;50.00
60820;BME280;46641;48.904;9.126;2023-09-07T01:35:14;98877.81;;;24.66;50.01
60820;BME280;46641;48.904;9.126;2023-09-07T01:40:07;98873.53;;;24.65;50.28
60820;BME280;46641;48.904;9.126;2023-09-07T01:44:57;98875.50;;;24.58;50.21
60820;BME280;46641;48.904;9.126;2023-09-07T01:49:47;98878.88;;;24.54;50.48
60820;BME280;46641;48.904;9.126;2023-09-07T01:54:37;98882.47;;;24.47;50.66
60820;BME280;46641;48.904;9.126;2023-09-07T01:59:28;98887.47;;;24.44;50.62
60820;BME280;46641;48.904;9.126;2023-09-07T02:04:18;98891.56;;;24.40;50.49
60820;BME280;46641;48.904;9.126;2023-09-07T02:09:08;98888.34;;;24.38;50.31
60820;BME280;46641;48.904;9.126;2023-09-07T02:13:59;98890.25;;;24.31;50.75
60820;BME280;46641;48.904;9.126;2023-09-07T02:18:50;98884.78;;;24.25;50.80
60820;BME280;46641;48.904;9.126;2023-09-07T02:23:40;98889.53;;;24.23;50.77
60820;BME280;46641;48.904;9.126;2023-09-07T02:28:31;98890.25;;;24.19;50.76
60820;BME280;46641;48.904;9.126;2023-09-07T02:33:21;98885.34;;;24.16;51.00
60820;BME280;46641;48.904;9.126;2023-09-07T02:38:11;98885.44;;;24.09;50.95
60820;BME280;46641;48.904;9.126;2023-09-07T02:43:03;98877.03;;;24.06;50.97
60820;BME280;46641;48.904;9.126;2023-09-07T02:47:53;98881.78;;;24.03;51.07
60820;BME280;46641;48.904;9.126;2023-09-07T02:52:43;98870.72;;;24.00;51.04
60820;BME280;46641;48.904;9.126;2023-09-07T02:57:34;98877.78;;;23.94;51.30
60820;BME280;46641;48.904;9.126;2023-09-07T03:02:25;98883.81;;;23.90;50.84
60820;BME280;46641;48.904;9.126;2023-09-07T03:07:15;98875.44;;;23.86;50.89
60820;BME280;46641;48.904;9.126;2023-09-07T03:12:06;98876.69;;;23.84;51.38
60820;BME280;46641;48.904;9.126;2023-09-07T03:16:56;98873.06;;;23.78;50.91
60820;BME280;46641;48.904;9.126;2023-09-07T03:21:46;98871.63;;;23.75;51.33
60820;BME280;46641;48.904;9.126;2023-09-07T03:26:36;98868.03;;;23.70;51.37
60820;BME280;46641;48.904;9.126;2023-09-07T03:31:27;98862.03;;;23.68;51.48
60820;BME280;46641;48.904;9.126;2023-09-07T03:36:17;98865.16;;;23.65;51.41
60820;BME280;46641;48.904;9.126;2023-09-07T03:41:07;98870.38;;;23.60;51.44
60820;BME280;46641;48.904;9.126;2023-09-07T03:45:58;98862.56;;;23.58;51.37
60820;BME280;46641;48.904;9.126;2023-09-07T03:50:48;98863.25;;;23.53;51.42
60820;BME280;46641;48.904;9.126;2023-09-07T03:55:44;98860.22;;;23.50;51.23
60820;BME280;46641;48.904;9.126;2023-09-07T04:00:38;98855.31;;;23.47;51.41
60820;BME280;46641;48.904;9.126;2023-09-07T04:05:28;98862.94;;;23.43;51.78
60820;BME280;46641;48.904;9.126;2023-09-07T04:10:18;98867.88;;;23.40;51.61
60820;BME280;46641;48.904;9.126;2023-09-07T04:15:10;98860.31;;;23.37;51.16
60820;BME280;46641;48.904;9.126;2023-09-07T04:20:00;98855.44;;;23.33;51.96
60820;BME280;46641;48.904;9.126;2023-09-07T04:24:50;98864.09;;;23.29;51.86
60820;BME280;46641;48.904;9.126;2023-09-07T04:29:41;98864.78;;;23.24;51.70
60820;BME280;46641;48.904;9.126;2023-09-07T04:34:31;98863.13;;;23.23;51.48
60820;BME280;46641;48.904;9.126;2023-09-07T04:39:22;98868.09;;;23.20;51.75
60820;BME280;46641;48.904;9.126;2023-09-07T04:44:12;98868.78;;;23.15;51.66
60820;BME280;46641;48.904;9.126;2023-09-07T04:49:02;98874.31;;;23.14;51.83
60820;BME280;46641;48.904;9.126;2023-09-07T04:53:52;98870.25;;;23.11;51.86
60820;BME280;46641;48.904;9.126;2023-09-07T04:58:43;98875.78;;;23.09;52.06
60820;BME280;46641;48.904;9.126;2023-09-07T05:03:34;98884.47;;;23.05;51.84
60820;BME280;46641;48.904;9.126;2023-09-07T05:08:25;98878.97;;;23.00;52.06
60820;BME280;46641;48.904;9.126;2023-09-07T05:13:15;98887.41;;;22.97;51.91
60820;BME280;46641;48.904;9.126;2023-09-07T05:18:05;98883.50;;;22.93;52.17
60820;BME280;46641;48.904;9.126;2023-09-07T05:22:56;98881.88;;;22.92;52.09
60820;BME280;46641;48.904;9.126;2023-09-07T05:27:48;98886.00;;;22.87;51.97
60820;BME280;46641;48.904;9.126;2023-09-07T05:32:38;98896.47;;;22.89;52.21
60820;BME280;46641;48.904;9.126;2023-09-07T05:37:29;98902.25;;;22.86;52.15
60820;BME280;46641;48.904;9.126;2023-09-07T05:42:20;98902.91;;;22.81;52.34
60820;BME280;46641;48.904;9.126;2023-09-07T05:47:10;98901.50;;;22.79;52.12
60820;BME280;46641;48.904;9.126;2023-09-07T05:52:00;98901.13;;;22.75;52.27
60820;BME280;46641;48.904;9.126;2023-09-07T05:56:50;98905.41;;;22.76;52.21
60820;BME280;46641;48.904;9.126;2023-09-07T06:01:41;98901.53;;;22.72;52.32
60820;BME280;46641;48.904;9.126;2023-09-07T06:06:31;98906.06;;;22.72;52.37
60820;BME280;46641;48.904;9.126;2023-09-07T06:11:22;98901.16;;;22.69;52.23
60820;BME280;46641;48.904;9.126;2023-09-07T06:16:12;98907.75;;;22.66;52.43
60820;BME280;46641;48.904;9.126;2023-09-07T06:21:02;98900.16;;;22.63;52.24
60820;BME280;46641;48.904;9.126;2023-09-07T06:25:54;98901.22;;;22.62;52.41
60820;BME280;46641;48.904;9.126;2023-09-07T06:30:44;98907.56;;;22.61;52.53
60820;BME280;46641;48.904;9.126;2023-09-07T06:35:35;98904.88;;;22.61;52.35
60820;BME280;46641;48.904;9.126;2023-09-07T06:40:25;98903.25;;;22.60;52.36
60820;BME280;46641;48.904;9.126;2023-09-07T06:45:16;98901.41;;;22.60;52.56
60820;BME280;46641;48.904;9.126;2023-09-07T06:50:06;98905.31;;;22.58;52.42
60820;BME280;46641;48.904;9.126;2023-09-07T06:54:56;98904.50;;;22.57;52.75
60820;BME280;46641;48.904;9.126;2023-09-07T06:59:47;98916.00;;;22.58;52.37
60820;BME280;46641;48.904;9.126;2023-09-07T07:04:38;98921.31;;;22.58;52.37
60820;BME280;46641;48.904;9.126;2023-09-07T07:09:28;98921.31;;;22.58;52.62
60820;BME280;46641;48.904;9.126;2023-09-07T07:14:19;98920.75;;;22.56;52.53
60820;BME280;46641;48.904;9.126;2023-09-07T07:19:10;98936.13;;;22.54;52.79
60820;BME280;46641;48.904;9.126;2023-09-07T07:24:00;98925.03;;;22.57;52.64
60820;BME280;46641;48.904;9.126;2023-09-07T07:28:50;98931.19;;;22.57;52.76
60820;BME280;46641;48.904;9.126;2023-09-07T07:33:40;98926.03;;;22.62;52.58
60820;BME280;46641;48.904;9.126;2023-09-07T07:38:31;98926.41;;;22.66;52.50
60820;BME280;46641;48.904;9.126;2023-09-07T07:43:21;98925.38;;;22.67;52.57
60820;BME280;46641;48.904;9.126;2023-09-07T07:48:12;98917.81;;;22.64;52.74
60820;BME280;46641;48.904;9.126;2023-09-07T07:53:02;98925.38;;;22.67;52.31
60820;BME280;46641;48.904;9.126;2023-09-07T07:57:52;98920.03;;;22.67;52.58
60820;BME280;46641;48.904;9.126;2023-09-07T08:02:43;98918.13;;;22.74;52.69
60820;BME280;46641;48.904;9.126;2023-09-07T08:07:34;98917.06;;;22.82;52.66
60820;BME280;46641;48.904;9.126;2023-09-07T08:12:24;98915.59;;;22.86;52.22
60820;BME280;46641;48.904;9.126;2023-09-07T08:17:14;98907.97;;;22.90;52.50
60820;BME280;46641;48.904;9.126;2023-09-07T08:22:05;98909.19;;;22.94;52.41
60820;BME280;46641;48.904;9.126;2023-09-07T08:26:56;98906.09;;;22.97;52.20
60820;BME280;46641;48.904;9.126;2023-09-07T08:31:50;98910.38;;;23.04;52.31
60820;BME280;46641;48.904;9.126;2023-09-07T08:36:40;98912.97;;;23.11;52.01
60820;BME280;46641;48.904;9.126;2023-09-07T08:41:31;98912.31;;;23.16;52.43
60820;BME280;46641;48.904;9.126;2023-09-07T08:46:22;98913.72;;;23.18;52.15
60820;BME280;46641;48.904;9.126;2023-09-07T08:51:18;98911.88;;;23.19;52.53
60820;BME280;46641;48.904;9.126;2023-09-07T08:56:09;98907.06;;;23.27;52.05
60820;BME280;46641;48.904;9.126;2023-09-07T09:01:00;98909.44;;;23.36;52.11
60820;BME280;46641;48.904;9.126;2023-09-07T09:05:50;98916.97;;;23.45;52.10
60820;BME280;46641;48.904;9.126;2023-09-07T09:11:06;98913.19;;;23.53;51.92
60820;BME280;46641;48.904;9.126;2023-09-07T09:15:59;98909.63;;;23.59;52.54
60820;BME280;46641;48.904;9.126;2023-09-07T09:20:56;98906.66;;;23.67;52.48
60820;BME280;46641;48.904;9.126;2023-09-07T09:25:49;98905.56;;;23.75;52.14
60820;BME280;46641;48.904;9.126;2023-09-07T09:30:41;98897.28;;;23.83;52.27
60820;BME280;46641;48.904;9.126;2023-09-07T09:35:34;98893.00;;;23.94;52.72
60820;BME280;46641;48.904;9.126;2023-09-07T09:40:25;98889.59;;;24.05;52.73
60820;BME280;46641;48.904;9.126;2023-09-07T09:45:16;98885.09;;;24.17;53.06
60820;BME280;46641;48.904;9.126;2023-09-07T09:50:11;98882.63;;;24.34;53.15
60820;BME280;46641;48.904;9.126;2023-09-07T09:55:03;98883.03;;;24.49;53.39
60820;BME280;46641;48.904;9.126;2023-09-07T09:59:55;98873.78;;;24.64;53.77
60820;BME280;46641;48.904;9.126;2023-09-07T10:04:46;98875.53;;;24.82;53.70
60820;BME280;46641;48.904;9.126;2023-09-07T10:09:38;98875.31;;;24.95;53.72
60820;BME280;46641;48.904;9.126;2023-09-07T10:14:39;98883.88;;;25.15;53.52
60820;BME280;46641;48.904;9.126;2023-09-07T22:43:51;98798.69;;;26.10;43.52
60820;BME280;46641;48.904;9.126;2023-09-07T22:48:41;98797.53;;;26.06;43.58
60820;BME280;46641;48.904;9.126;2023-09-07T22:53:31;98790.22;;;26.01;43.52
60820;BME280;46641;48.904;9.126;2023-09-07T22:58:22;98785.81;;;25.95;43.43
60820;BME280;46641;48.904;9.126;2023-09-07T23:03:12;98792.72;;;25.91;43.74
60820;BME280;46641;48.904;9.126;2023-09-07T23:08:03;98792.63;;;25.86;43.79
60820;BME280;46641;48.904;9.126;2023-09-07T23:12:54;98783.88;;;25.79;43.88
60820;BME280;46641;48.904;9.126;2023-09-07T23:17:45;98785.41;;;25.75;43.75
60820;BME280;46641;48.904;9.126;2023-09-07T23:22:36;98787.97;;;25.70;43.92
60820;BME280;46641;48.904;9.126;2023-09-07T23:27:27;98785.44;;;25.63;44.04
60820;BME280;46641;48.904;9.126;2023-09-07T23:32:17;98783.72;;;25.57;43.55
60820;BME280;46641;48.904;9.126;2023-09-07T23:37:07;98781.97;;;25.51;44.03
60820;BME280;46641;48.904;9.126;2023-09-07T23:41:57;98783.50;;;25.47;44.02
60820;BME280;46641;48.904;9.126;2023-09-07T23:46:48;98773.50;;;25.42;44.19
60820;BME280;46641;48.904;9.126;2023-09-07T23:51:39;98775.53;;;25.35;44.23
60820;BME280;46641;48.904;9.126;2023-09-07T23:56:29;98783.19;;;25.31;44.36
